Time;durP1;ratioP1;P1;durP2;ratioP2;P2;SDS_P1;SDS_P2;PMS_P1;PMS_P2;Temp;Humidity;BMP_temperature;BMP_pressure;BME280_temperature;BME280_humidity;BME280_pressure;Samples;Min_cycle;Max_cycle;Signal;HPM_P1;HPM_P2
2022/07/12 00:02:14;;;;;;;0.00;0.00;;;19.30;99.90;;;;;;5094468;28;20044;-75
2022/07/12 00:04:40;;;;;;;0.00;0.00;;;19.30;99.90;;;;;;5094596;28;20021;-75
2022/07/12 00:07:06;;;;;;;0.00;0.00;;;19.30;99.90;;;;;;5093017;28;20034;-75
2022/07/12 00:09:32;;;;;;;0.00;0.00;;;19.20;99.90;;;;;;5095126;28;20123;-76
2022/07/12 00:11:59;;;;;;;0.38;0.38;;;19.20;99.90;;;;;;5093833;28;20020;-76
2022/07/12 00:14:25;;;;;;;0.00;0.00;;;19.20;99.90;;;;;;5100179;28;20016;-76
2022/07/12 00:16:51;;;;;;;0.00;0.00;;;19.20;99.90;;;;;;5109526;28;20035;-76
2022/07/12 00:19:18;;;;;;;0.00;0.00;;;19.20;99.90;;;;;;5110813;28;20039;-76
2022/07/12 00:21:44;;;;;;;0.00;0.00;;;19.20;99.90;;;;;;5099983;28;20054;-75
2022/07/12 00:24:11;;;;;;;0.00;0.00;;;19.20;99.90;;;;;;5098948;28;20469;-76
2022/07/12 00:26:37;;;;;;;0.00;0.00;;;19.20;99.90;;;;;;5096203;28;20437;-76
2022/07/12 00:29:03;;;;;;;0.00;0.00;;;19.20;99.90;;;;;;5103116;28;20055;-76
2022/07/12 00:31:29;;;;;;;0.00;0.00;;;19.30;99.90;;;;;;5092336;28;20028;-75
2022/07/12 00:33:55;;;;;;;0.00;0.00;;;19.30;99.90;;;;;;5093789;28;20026;-76
2022/07/12 00:36:21;;;;;;;0.00;0.00;;;19.40;99.90;;;;;;5093788;28;20024;-75
2022/07/12 00:38:47;;;;;;;0.00;0.00;;;19.50;99.90;;;;;;5080872;28;20044;-76
2022/07/12 00:41:13;;;;;;;0.00;0.00;;;19.40;99.90;;;;;;5068912;28;20077;-75
2022/07/12 00:43:39;;;;;;;0.00;0.00;;;19.50;99.90;;;;;;5062755;28;20020;-76
2022/07/12 00:46:05;;;;;;;0.00;0.00;;;19.50;99.90;;;;;;5086188;28;20023;-79
2022/07/12 00:48:35;;;;;;;0.00;0.00;;;19.50;99.90;;;;;;5082004;28;20021;-76
2022/07/12 00:51:02;;;;;;;0.00;0.00;;;19.70;99.90;;;;;;5055182;28;20470;-75
2022/07/12 00:53:28;;;;;;;0.00;0.00;;;19.90;99.90;;;;;;5055063;28;20064;-75
2022/07/12 00:55:56;;;;;;;0.00;0.00;;;20.50;99.90;;;;;;5062419;28;20077;-74
2022/07/12 00:58:23;;;;;;;0.00;0.00;;;21.40;99.90;;;;;;5082278;28;20510;-76
2022/07/12 01:00:50;;;;;;;0.00;0.00;;;22.20;99.90;;;;;;5054872;28;20032;-76
2022/07/12 01:03:16;;;;;;;0.17;0.17;;;22.90;97.60;;;;;;5073161;28;20025;-76
2022/07/12 01:05:44;;;;;;;0.00;0.00;;;23.40;98.80;;;;;;5072858;28;20016;-76
2022/07/12 01:08:12;;;;;;;0.00;0.00;;;24.20;93.00;;;;;;5054947;28;20467;-76
2022/07/12 01:10:39;;;;;;;0.00;0.00;;;24.30;76.20;;;;;;5073097;28;20036;-76
2022/07/12 01:13:06;;;;;;;0.00;0.00;;;24.40;77.60;;;;;;5057773;28;20490;-76
2022/07/12 01:15:32;;;;;;;0.38;0.38;;;24.70;78.10;;;;;;5090907;28;20032;-76
2022/07/12 01:18:00;;;;;;;2.30;1.95;;;24.70;74.50;;;;;;5073035;28;20101;-76
2022/07/12 01:20:26;;;;;;;3.08;2.97;;;24.00;72.00;;;;;;5091338;28;20024;-76
2022/07/12 01:23:02;;;;;;;0.50;0.50;;;24.00;73.00;;;;;;5068566;28;20024;-76
2022/07/12 01:25:29;;;;;;;0.28;0.28;;;23.90;72.10;;;;;;5081650;28;20016;-76
2022/07/12 01:27:55;;;;;;;5.82;0.60;;;23.80;73.10;;;;;;5072836;28;20026;-76
2022/07/12 01:30:21;;;;;;;0.10;0.10;;;23.40;74.90;;;;;;5072706;28;20024;-76
2022/07/12 01:32:47;;;;;;;0.50;0.45;;;23.20;75.30;;;;;;5073117;28;20025;-75
2022/07/12 01:35:13;;;;;;;2.38;0.95;;;22.70;77.00;;;;;;5054703;28;20468;-75
2022/07/12 01:37:43;;;;;;;0.03;0.03;;;22.50;78.20;;;;;;5079773;28;20032;-76
2022/07/12 01:40:11;;;;;;;1.88;0.98;;;22.10;79.20;;;;;;5092843;28;20047;-76
2022/07/12 01:42:38;;;;;;;0.00;0.00;;;21.80;82.00;;;;;;5093086;28;20084;-75
2022/07/12 01:45:06;;;;;;;0.85;0.45;;;22.00;81.50;;;;;;5109164;28;20047;-75
2022/07/12 01:47:33;;;;;;;2.83;0.57;;;22.30;78.50;;;;;;5106622;28;20502;-76
2022/07/12 01:50:00;;;;;;;0.40;0.40;;;22.50;76.60;;;;;;5108805;28;20051;-76
2022/07/12 01:52:26;;;;;;;1.08;0.60;;;22.70;75.50;;;;;;5103422;28;20055;-76
2022/07/12 01:54:54;;;;;;;0.00;0.00;;;22.60;73.60;;;;;;5110836;28;20020;-75
2022/07/12 01:57:21;;;;;;;0.73;0.63;;;22.80;75.60;;;;;;5103607;28;20024;-76
2022/07/12 02:00:00;;;;;;;0.20;0.20;;;23.00;72.20;;;;;;5110372;28;20048;-76
2022/07/12 02:02:28;;;;;;;0.20;0.15;;;23.20;73.20;;;;;;5093969;28;20043;-76
2022/07/12 02:04:54;;;;;;;0.28;0.28;;;23.90;69.30;;;;;;5109979;28;20075;-75
2022/07/12 02:07:22;;;;;;;1.02;0.22;;;23.60;68.20;;;;;;5101118;28;20027;-76
2022/07/12 02:09:48;;;;;;;0.57;0.43;;;24.10;67.30;;;;;;5110073;28;20027;-76
2022/07/12 02:12:15;;;;;;;4.75;4.47;;;24.50;65.70;;;;;;5102360;28;20133;-75
2022/07/12 02:14:41;;;;;;;1.25;0.80;;;25.00;63.60;;;;;;5110997;28;20028;-75
2022/07/12 02:17:06;;;;;;;1.42;1.38;;;25.50;62.40;;;;;;5111625;28;20028;-75
2022/07/12 02:19:33;;;;;;;0.20;0.20;;;26.20;59.60;;;;;;5098492;28;20543;-75
2022/07/12 02:21:59;;;;;;;0.20;0.20;;;26.50;57.80;;;;;;5108147;28;20019;-75
2022/07/12 02:24:25;;;;;;;0.00;0.00;;;26.80;55.40;;;;;;5100562;28;20501;-75
2022/07/12 02:26:51;;;;;;;0.00;0.00;;;27.30;54.90;;;;;;5089983;28;20106;-75
2022/07/12 02:29:17;;;;;;;0.00;0.00;;;27.80;52.90;;;;;;5083754;28;20062;-75
2022/07/12 02:31:43;;;;;;;0.00;0.00;;;28.30;50.90;;;;;;5099076;28;20438;-76
2022/07/12 02:34:09;;;;;;;0.38;0.38;;;28.90;49.40;;;;;;5099951;28;20020;-76
2022/07/12 02:36:35;;;;;;;0.00;0.00;;;28.70;47.80;;;;;;5107154;28;20375;-79
2022/07/12 02:39:03;;;;;;;0.00;0.00;;;28.90;47.80;;;;;;5075921;28;20051;-82
2022/07/12 02:41:30;;;;;;;0.00;0.00;;;29.90;46.40;;;;;;5082864;28;20035;-75
2022/07/12 02:43:57;;;;;;;0.10;0.10;;;30.40;44.90;;;;;;5094595;28;20115;-76
2022/07/12 02:46:23;;;;;;;0.00;0.00;;;30.90;43.80;;;;;;5101758;28;20020;-76
2022/07/12 02:48:49;;;;;;;1.30;1.27;;;31.60;42.00;;;;;;5083367;28;20031;-77
2022/07/12 02:51:15;;;;;;;0.28;0.20;;;31.30;41.10;;;;;;5101540;27;20032;-78
2022/07/12 02:53:41;;;;;;;0.00;0.00;;;31.40;41.60;;;;;;5100599;27;20486;-79
2022/07/12 02:56:08;;;;;;;0.22;0.22;;;32.60;40.20;;;;;;5092172;28;20473;-79
2022/07/12 02:58:35;;;;;;;0.00;0.00;;;33.20;37.70;;;;;;5084406;28;20080;-81
2022/07/12 03:01:01;;;;;;;0.47;0.38;;;33.60;36.20;;;;;;5108107;27;20030;-78
2022/07/12 03:03:27;;;;;;;0.10;0.05;;;33.80;35.20;;;;;;5082859;28;20023;-79
2022/07/12 03:05:53;;;;;;;0.05;0.05;;;33.30;35.70;;;;;;5100238;28;20554;-80
2022/07/12 03:08:19;;;;;;;0.00;0.00;;;33.50;36.00;;;;;;5099826;28;20023;-80
2022/07/12 03:10:45;;;;;;;1.33;0.25;;;32.30;35.70;;;;;;5101064;27;20020;-81
2022/07/12 03:13:11;;;;;;;0.08;0.08;;;31.60;36.40;;;;;;5087545;28;20024;-81
2022/07/12 03:15:37;;;;;;;0.65;0.15;;;30.80;37.30;;;;;;5089427;28;20019;-81
2022/07/12 03:18:04;;;;;;;0.35;0.35;;;30.90;38.30;;;;;;5101134;28;20091;-79
2022/07/12 03:20:31;;;;;;;4.65;4.28;;;30.20;37.40;;;;;;5100778;28;20023;-78
2022/07/12 03:22:59;;;;;;;0.05;0.05;;;30.00;39.40;;;;;;5101120;28;20092;-80
2022/07/12 03:25:25;;;;;;;0.43;0.43;;;30.20;39.00;;;;;;5107562;27;20157;-78
2022/07/12 03:27:51;;;;;;;0.00;0.00;;;30.60;37.00;;;;;;5111653;27;20027;-78
2022/07/12 03:30:17;;;;;;;0.13;0.10;;;31.00;37.20;;;;;;5107995;28;20024;-81
2022/07/12 03:32:44;;;;;;;0.40;0.40;;;31.30;35.40;;;;;;5101412;28;20057;-80
2022/07/12 03:35:10;;;;;;;0.82;0.50;;;30.60;36.80;;;;;;5115086;28;20128;-77
2022/07/12 03:37:50;;;;;;;0.10;0.10;;;29.70;38.00;;;;;;5110269;27;20453;-78
2022/07/12 03:40:18;;;;;;;0.10;0.10;;;29.10;38.20;;;;;;5103716;27;20150;-78
2022/07/12 03:42:45;;;;;;;0.10;0.10;;;28.70;38.80;;;;;;5109088;28;20023;-79
2022/07/12 03:45:13;;;;;;;0.00;0.00;;;28.40;37.10;;;;;;5084170;28;20519;-80
2022/07/12 03:47:39;;;;;;;0.00;0.00;;;28.50;37.00;;;;;;5114230;28;20127;-79
2022/07/12 03:50:13;;;;;;;0.00;0.00;;;28.80;37.00;;;;;;5096145;28;20027;-78
2022/07/12 03:52:40;;;;;;;0.80;0.38;;;29.10;36.00;;;;;;5112423;28;20027;-78
2022/07/12 03:55:07;;;;;;;0.00;0.00;;;29.70;35.90;;;;;;5112536;28;20527;-78
2022/07/12 03:57:33;;;;;;;0.00;0.00;;;30.00;35.70;;;;;;5107101;28;20412;-80
2022/07/12 03:59:59;;;;;;;0.00;0.00;;;30.30;36.90;;;;;;5106482;27;20077;-78
2022/07/12 04:02:25;;;;;;;0.00;0.00;;;30.40;36.80;;;;;;5109423;27;20043;-81
2022/07/12 04:04:52;;;;;;;0.10;0.10;;;30.70;37.50;;;;;;5111341;28;20028;-81
2022/07/12 04:07:19;;;;;;;0.00;0.00;;;31.10;37.10;;;;;;5114214;27;20020;-81
2022/07/12 04:09:45;;;;;;;0.00;0.00;;;31.20;36.40;;;;;;5088712;28;20038;-81
2022/07/12 04:12:11;;;;;;;0.00;0.00;;;30.70;34.30;;;;;;5108764;27;20114;-81
2022/07/12 04:14:37;;;;;;;0.00;0.00;;;30.80;33.80;;;;;;5123782;28;20043;-80
2022/07/12 04:17:05;;;;;;;0.10;0.10;;;30.20;34.00;;;;;;5130082;28;20182;-79
2022/07/12 04:19:31;;;;;;;0.00;0.00;;;30.00;33.70;;;;;;5126857;27;20045;-79
2022/07/12 04:21:58;;;;;;;0.00;0.00;;;30.00;34.20;;;;;;5119818;27;20079;-79
2022/07/12 04:24:25;;;;;;;0.03;0.03;;;30.10;34.50;;;;;;5097373;28;20027;-77
2022/07/12 04:26:51;;;;;;;0.00;0.00;;;30.20;34.40;;;;;;5121519;27;20084;-83
2022/07/12 04:29:18;;;;;;;0.00;0.00;;;30.20;34.40;;;;;;5086691;28;20031;-82
2022/07/12 04:31:45;;;;;;;0.00;0.00;;;30.20;35.00;;;;;;5106177;28;20062;-82
2022/07/12 04:34:11;;;;;;;0.00;0.00;;;30.20;35.20;;;;;;5119605;28;20034;-82
2022/07/12 04:36:37;;;;;;;0.22;0.22;;;30.00;35.80;;;;;;5115938;27;20099;-82
2022/07/12 04:39:04;;;;;;;0.00;0.00;;;30.10;35.40;;;;;;5112212;28;20158;-84
2022/07/12 04:41:30;;;;;;;2.72;2.63;;;30.10;36.10;;;;;;5117320;27;20023;-82
2022/07/12 04:43:56;;;;;;;1.38;1.33;;;29.50;36.90;;;;;;5090673;28;20032;-82
2022/07/12 04:46:22;;;;;;;0.00;0.00;;;29.50;36.20;;;;;;5106989;28;20016;-82
2022/07/12 04:48:48;;;;;;;0.00;0.00;;;29.30;36.90;;;;;;5109036;28;20062;-84
2022/07/12 04:51:16;;;;;;;0.00;0.00;;;29.50;36.20;;;;;;5087659;28;20027;-84
2022/07/12 04:53:42;;;;;;;0.00;0.00;;;29.40;36.40;;;;;;5094397;28;20031;-85
2022/07/12 04:56:08;;;;;;;2.72;0.22;;;29.30;37.70;;;;;;5108638;28;20031;-83
2022/07/12 04:58:35;;;;;;;0.98;0.60;;;29.10;37.20;;;;;;5111052;28;20433;-83
2022/07/12 05:01:01;;;;;;;0.00;0.00;;;29.60;36.40;;;;;;5109288;27;20044;-82
2022/07/12 05:03:28;;;;;;;1.85;0.85;;;29.30;37.00;;;;;;5112942;27;20451;-86
2022/07/12 05:05:55;;;;;;;0.08;0.08;;;29.40;37.10;;;;;;5106265;28;20035;-81
2022/07/12 05:08:21;;;;;;;0.00;0.00;;;28.90;37.00;;;;;;5105130;28;20035;-82
2022/07/12 05:10:48;;;;;;;0.00;0.00;;;29.00;37.80;;;;;;5113721;28;20381;-81
2022/07/12 05:13:14;;;;;;;1.27;0.80;;;29.10;38.10;;;;;;5108253;28;20031;-85
2022/07/12 05:15:40;;;;;;;0.30;0.13;;;29.10;36.70;;;;;;5106826;27;20034;-82
2022/07/12 05:18:06;;;;;;;0.00;0.00;;;28.60;38.20;;;;;;5104543;28;20382;-81
2022/07/12 05:20:32;;;;;;;0.00;0.00;;;28.50;39.60;;;;;;5092851;28;20529;-82
2022/07/12 05:22:59;;;;;;;0.20;0.10;;;28.80;39.00;;;;;;5102375;27;20478;-81
2022/07/12 05:25:25;;;;;;;0.13;0.13;;;28.90;37.40;;;;;;5088830;28;20031;-84
2022/07/12 05:27:51;;;;;;;0.38;0.25;;;28.70;39.20;;;;;;5107114;27;20024;-84
2022/07/12 05:30:17;;;;;;;0.95;0.38;;;28.50;40.30;;;;;;5118172;27;20016;-85
2022/07/12 05:32:43;;;;;;;2.65;0.95;;;28.50;39.20;;;;;;5128789;28;20115;-83
2022/07/12 05:35:09;;;;;;;0.45;0.45;;;28.40;41.60;;;;;;5092490;28;20102;-83
2022/07/12 05:37:35;;;;;;;0.17;0.17;;;28.30;40.10;;;;;;5091805;27;20027;-82
2022/07/12 05:40:01;;;;;;;2.25;1.00;;;28.00;41.10;;;;;;5085328;28;20028;-82
2022/07/12 05:42:28;;;;;;;0.80;0.70;;;28.10;40.00;;;;;;5103129;27;20015;-83
2022/07/12 05:44:54;;;;;;;2.45;0.52;;;28.10;41.80;;;;;;5081019;28;20028;-82
2022/07/12 05:47:20;;;;;;;2.08;0.63;;;28.00;40.20;;;;;;5081634;28;20020;-81
2022/07/12 05:49:46;;;;;;;0.25;0.10;;;27.90;41.00;;;;;;5102603;28;20027;-82
2022/07/12 05:54:56;;;;;;;0.10;0.10;;;28.00;42.40;;;;;;5098149;28;20055;-81
2022/07/12 05:57:22;;;;;;;6.93;1.17;;;27.90;42.60;;;;;;5096953;28;20028;-82
2022/07/12 05:59:48;;;;;;;16.40;0.93;;;27.70;42.90;;;;;;5083086;28;20078;-80
2022/07/12 06:02:14;;;;;;;0.63;0.63;;;27.60;42.50;;;;;;5082737;28;20498;-83
2022/07/12 06:04:40;;;;;;;3.13;0.95;;;27.90;42.40;;;;;;5086083;28;20034;-83
2022/07/12 06:07:06;;;;;;;4.00;2.28;;;27.70;43.20;;;;;;5105839;28;20019;-82
2022/07/12 06:09:32;;;;;;;1.80;1.70;;;28.00;42.20;;;;;;5104888;28;20135;-85
2022/07/12 06:11:59;;;;;;;0.30;0.30;;;28.20;42.00;;;;;;5090173;28;20032;-82
2022/07/12 06:14:25;;;;;;;0.08;0.08;;;28.50;42.10;;;;;;5084530;28;20040;-83
2022/07/12 06:16:51;;;;;;;1.15;0.65;;;28.20;39.90;;;;;;5103787;28;20023;-82
2022/07/12 06:19:17;;;;;;;1.13;0.20;;;28.40;39.40;;;;;;5108765;28;20566;-83
2022/07/12 06:21:43;;;;;;;0.63;0.32;;;28.70;40.90;;;;;;5112305;27;20030;-83
2022/07/12 06:24:09;;;;;;;0.65;0.10;;;28.80;39.40;;;;;;5107324;27;20027;-84
2022/07/12 06:26:35;;;;;;;0.00;0.00;;;28.90;39.30;;;;;;5112654;28;20359;-83
2022/07/12 06:29:02;;;;;;;0.00;0.00;;;29.00;41.10;;;;;;5104270;28;20466;-82
2022/07/12 06:31:28;;;;;;;1.35;0.57;;;28.80;39.10;;;;;;5111048;28;20028;-84
2022/07/12 06:33:54;;;;;;;0.75;0.40;;;29.00;38.10;;;;;;5100520;28;20028;-83
2022/07/12 06:36:20;;;;;;;0.40;0.20;;;28.90;37.90;;;;;;5086295;28;20031;-83
2022/07/12 06:38:46;;;;;;;0.47;0.40;;;28.90;38.20;;;;;;5089025;28;20043;-82
2022/07/12 06:41:13;;;;;;;1.50;0.85;;;29.00;38.10;;;;;;5104840;27;20389;-82
2022/07/12 06:43:39;;;;;;;0.00;0.00;;;29.00;39.00;;;;;;5103539;28;20462;-81
2022/07/12 06:46:05;;;;;;;1.30;0.30;;;29.00;38.30;;;;;;5093986;28;20123;-81
2022/07/12 06:48:31;;;;;;;1.83;0.52;;;29.20;37.10;;;;;;5100897;28;20055;-81
2022/07/12 06:50:57;;;;;;;4.05;2.85;;;29.40;36.80;;;;;;5115762;27;20042;-81
2022/07/12 06:53:23;;;;;;;0.38;0.38;;;29.60;36.40;;;;;;5115630;27;20035;-81
2022/07/12 06:55:50;;;;;;;1.60;1.55;;;29.40;37.80;;;;;;5114564;27;20150;-78
2022/07/12 06:58:16;;;;;;;0.13;0.10;;;29.90;37.40;;;;;;5113971;27;20378;-79
2022/07/12 07:00:42;;;;;;;0.65;0.65;;;30.00;37.50;;;;;;5108033;27;20514;-77
2022/07/12 07:03:08;;;;;;;0.70;0.50;;;30.00;36.10;;;;;;5106619;27;20050;-80
2022/07/12 07:05:36;;;;;;;2.03;0.75;;;30.00;37.20;;;;;;5090887;27;20027;-80
2022/07/12 07:08:03;;;;;;;0.20;0.20;;;30.10;37.20;;;;;;5104132;27;20161;-81
2022/07/12 07:10:29;;;;;;;3.40;0.43;;;30.20;35.60;;;;;;5090262;28;20028;-81
2022/07/12 07:12:55;;;;;;;0.03;0.03;;;30.00;35.40;;;;;;5104560;27;20099;-81
2022/07/12 07:15:21;;;;;;;0.25;0.25;;;30.00;36.20;;;;;;5105194;27;20296;-83
2022/07/12 07:17:48;;;;;;;2.50;1.02;;;30.00;36.00;;;;;;5093929;27;20023;-82
2022/07/12 07:20:14;;;;;;;0.00;0.00;;;29.70;35.70;;;;;;5111414;27;20028;-82
2022/07/12 07:22:40;;;;;;;0.00;0.00;;;29.20;36.50;;;;;;5102036;27;20058;-84
2022/07/12 07:25:06;;;;;;;3.55;1.20;;;29.30;35.40;;;;;;5092588;28;20526;-79
2022/07/12 07:27:33;;;;;;;3.97;2.42;;;29.40;36.00;;;;;;5093084;28;20035;-81
2022/07/12 07:32:45;;;;;;;0.40;0.28;;;29.40;36.00;;;;;;5116269;27;20117;-81
2022/07/12 07:35:11;;;;;;;0.00;0.00;;;29.40;35.90;;;;;;5121224;27;20035;-80
2022/07/12 07:37:37;;;;;;;0.00;0.00;;;29.50;35.70;;;;;;5121673;27;20047;-80
2022/07/12 07:40:07;;;;;;;0.00;0.00;;;29.80;36.00;;;;;;5114241;27;20035;-80
2022/07/12 07:42:33;;;;;;;0.35;0.20;;;29.90;35.50;;;;;;5087019;28;20233;-79
2022/07/12 07:44:59;;;;;;;0.10;0.10;;;29.90;35.30;;;;;;5109976;27;20089;-80
2022/07/12 07:47:25;;;;;;;0.50;0.30;;;29.60;36.70;;;;;;5109047;27;20589;-79
2022/07/12 07:49:55;;;;;;;0.20;0.20;;;29.10;37.50;;;;;;5113613;27;20482;-80
2022/07/12 07:52:21;;;;;;;0.00;0.00;;;29.00;37.90;;;;;;5104503;27;20051;-79
2022/07/12 07:54:47;;;;;;;0.00;0.00;;;29.40;38.10;;;;;;5104899;27;20489;-78
2022/07/12 07:57:13;;;;;;;0.20;0.20;;;29.30;38.90;;;;;;5106886;27;20028;-80
2022/07/12 07:59:39;;;;;;;0.00;0.00;;;29.30;39.00;;;;;;5106588;27;20027;-79
2022/07/12 08:02:05;;;;;;;15.98;2.08;;;28.80;39.60;;;;;;5104846;28;20028;-79
2022/07/12 08:04:31;;;;;;;0.30;0.30;;;28.80;39.00;;;;;;5102872;28;20551;-80
2022/07/12 08:06:58;;;;;;;3.47;2.30;;;28.40;39.20;;;;;;5106764;28;20024;-82
2022/07/12 08:09:24;;;;;;;1.48;1.23;;;28.50;39.20;;;;;;5112364;27;20016;-82
2022/07/12 08:11:50;;;;;;;1.00;1.00;;;28.40;39.50;;;;;;5099465;28;20547;-81
2022/07/12 08:14:16;;;;;;;0.25;0.25;;;28.10;40.30;;;;;;5083270;28;20028;-80
2022/07/12 08:16:43;;;;;;;0.88;0.88;;;28.00;40.50;;;;;;5099186;27;20042;-80
2022/07/12 08:19:09;;;;;;;0.00;0.00;;;28.00;40.30;;;;;;5081624;28;20027;-79
2022/07/12 08:21:35;;;;;;;0.00;0.00;;;28.00;41.30;;;;;;5102198;27;20020;-80
2022/07/12 08:24:01;;;;;;;0.00;0.00;;;27.90;41.10;;;;;;5083500;28;20169;-81
2022/07/12 08:26:27;;;;;;;0.05;0.05;;;28.10;40.80;;;;;;5089986;28;20042;-80
2022/07/12 08:28:53;;;;;;;0.00;0.00;;;28.20;41.70;;;;;;5083396;28;20418;-81
2022/07/12 08:31:19;;;;;;;0.15;0.15;;;28.10;43.40;;;;;;5107089;27;20023;-81
2022/07/12 08:34:01;;;;;;;0.63;0.63;;;28.10;42.90;;;;;;5082778;28;20028;-82
2022/07/12 08:36:27;;;;;;;2.28;1.75;;;28.40;42.60;;;;;;5105488;27;20036;-80
2022/07/12 08:38:53;;;;;;;0.00;0.00;;;28.20;42.80;;;;;;5084677;27;20047;-81
2022/07/12 08:41:19;;;;;;;0.38;0.30;;;28.20;44.00;;;;;;5104404;28;20028;-79
2022/07/12 08:43:45;;;;;;;0.10;0.10;;;27.90;44.00;;;;;;5098519;27;20383;-79
2022/07/12 08:46:13;;;;;;;0.25;0.25;;;28.00;43.50;;;;;;5108163;27;20031;-80
2022/07/12 08:48:43;;;;;;;0.00;0.00;;;28.20;43.60;;;;;;5088696;28;20024;-78
2022/07/12 08:51:17;;;;;;;0.00;0.00;;;28.20;42.70;;;;;;5105606;28;20038;-78
2022/07/12 08:53:43;;;;;;;0.13;0.13;;;28.20;42.40;;;;;;5124065;28;20077;-81
2022/07/12 08:56:37;;;;;;;0.00;0.00;;;28.10;41.80;;;;;;5101611;27;20103;-81
2022/07/12 08:59:19;;;;;;;0.00;0.00;;;28.20;41.40;;;;;;5121952;28;20019;-80
2022/07/12 09:01:49;;;;;;;0.00;0.00;;;28.20;40.30;;;;;;5117085;27;20035;-79
2022/07/12 09:04:21;;;;;;;0.00;0.00;;;28.40;40.40;;;;;;5103890;27;20019;-76
2022/07/12 09:06:47;;;;;;;0.00;0.00;;;28.50;40.30;;;;;;5101159;27;20409;-76
2022/07/12 09:09:31;;;;;;;0.45;0.25;;;28.30;41.00;;;;;;5101608;28;20020;-79
2022/07/12 09:11:57;;;;;;;0.00;0.00;;;28.60;40.30;;;;;;5105793;28;20038;-81
2022/07/12 09:14:24;;;;;;;0.00;0.00;;;28.30;40.50;;;;;;5104931;27;20032;-81
2022/07/12 09:17:12;;;;;;;0.00;0.00;;;28.40;40.20;;;;;;5091691;28;20035;-81
2022/07/12 09:19:39;;;;;;;0.00;0.00;;;28.40;39.50;;;;;;5103691;27;20106;-79
2022/07/12 09:22:16;;;;;;;0.00;0.00;;;28.40;41.00;;;;;;5101742;27;20024;-79
2022/07/12 09:24:42;;;;;;;0.00;0.00;;;28.20;40.60;;;;;;5096001;28;20443;-76
2022/07/12 09:27:08;;;;;;;0.00;0.00;;;28.00;41.10;;;;;;5097316;28;20484;-76
2022/07/12 09:29:50;;;;;;;0.00;0.00;;;27.70;42.00;;;;;;5096574;28;20059;-76
2022/07/12 09:37:46;;;;;;;0.05;0.05;;;27.30;43.80;;;;;;5108593;28;20034;-81
2022/07/12 09:40:13;;;;;;;0.00;0.00;;;27.00;43.90;;;;;;5096471;28;20032;-83
2022/07/12 09:42:42;;;;;;;0.00;0.00;;;27.00;44.90;;;;;;5100676;28;20026;-81
2022/07/12 09:45:10;;;;;;;0.00;0.00;;;27.20;44.20;;;;;;5107088;28;20031;-83
2022/07/12 09:47:36;;;;;;;0.00;0.00;;;27.20;44.80;;;;;;5104684;28;20107;-84
2022/07/12 09:50:06;;;;;;;0.00;0.00;;;27.10;44.40;;;;;;5098196;28;20036;-85
2022/07/12 09:52:36;;;;;;;0.00;0.00;;;27.50;42.10;;;;;;5106749;28;20016;-81
2022/07/12 09:55:03;;;;;;;0.00;0.00;;;27.50;41.80;;;;;;5109047;27;20535;-79
2022/07/12 09:57:34;;;;;;;0.00;0.00;;;27.50;41.70;;;;;;5111795;27;20031;-82
2022/07/12 10:00:07;;;;;;;0.00;0.00;;;27.70;41.20;;;;;;5107903;27;20162;-80
2022/07/12 10:02:35;;;;;;;0.00;0.00;;;27.80;41.10;;;;;;5100016;28;20020;-78
2022/07/12 10:05:04;;;;;;;0.00;0.00;;;27.80;41.10;;;;;;5108350;28;20091;-84
2022/07/12 10:07:31;;;;;;;0.00;0.00;;;27.80;41.50;;;;;;5109507;27;20370;-81
2022/07/12 10:09:58;;;;;;;0.00;0.00;;;27.60;42.50;;;;;;5107636;28;20062;-81
2022/07/12 10:12:24;;;;;;;0.00;0.00;;;27.70;43.40;;;;;;5101375;28;20114;-82
2022/07/12 10:15:02;;;;;;;0.00;0.00;;;27.70;44.10;;;;;;5103557;27;20034;-81
2022/07/12 10:17:30;;;;;;;0.00;0.00;;;27.20;43.80;;;;;;5100936;27;20081;-82
2022/07/12 10:20:22;;;;;;;0.43;0.20;;;27.00;43.20;;;;;;5109063;28;20026;-79
2022/07/12 10:22:48;;;;;;;0.00;0.00;;;26.90;43.50;;;;;;5101916;27;20055;-81
2022/07/12 10:25:32;;;;;;;0.13;0.00;;;26.60;43.60;;;;;;5109102;27;20099;-83
2022/07/12 10:28:00;;;;;;;0.47;0.40;;;26.40;44.00;;;;;;5101841;27;20370;-83
2022/07/12 10:30:26;;;;;;;1.13;1.13;;;26.20;44.20;;;;;;5097044;28;20028;-82
2022/07/12 10:32:57;;;;;;;0.68;0.68;;;26.10;43.80;;;;;;5111849;27;20133;-83
2022/07/12 10:35:25;;;;;;;0.00;0.00;;;26.00;43.10;;;;;;5103341;28;20035;-81
2022/07/12 10:38:17;;;;;;;2.35;0.25;;;25.80;43.40;;;;;;5094599;28;20458;-76
2022/07/12 10:40:46;;;;;;;0.00;0.00;;;25.60;43.90;;;;;;5092788;27;20154;-77
2022/07/12 10:43:12;;;;;;;0.00;0.00;;;25.60;43.40;;;;;;5106479;28;20020;-76
2022/07/12 10:45:40;;;;;;;0.95;0.45;;;25.70;43.40;;;;;;5087427;27;20118;-80
2022/07/12 10:48:08;;;;;;;0.80;0.10;;;25.60;42.70;;;;;;5091527;28;20023;-78
2022/07/12 10:50:54;;;;;;;0.00;0.00;;;25.70;42.20;;;;;;5110200;27;20738;-81
2022/07/12 10:53:23;;;;;;;0.00;0.00;;;26.00;42.60;;;;;;5093131;28;21075;-82
2022/07/12 10:56:04;;;;;;;0.00;0.00;;;26.40;41.60;;;;;;5094111;27;20040;-81
2022/07/12 10:58:36;;;;;;;0.55;0.20;;;26.70;41.80;;;;;;5095215;28;20054;-80
2022/07/12 11:01:04;;;;;;;0.00;0.00;;;27.00;40.70;;;;;;5113203;27;20058;-78
2022/07/12 11:03:52;;;;;;;0.00;0.00;;;27.50;40.50;;;;;;5105877;28;20023;-80
2022/07/12 11:06:21;;;;;;;0.73;0.73;;;27.50;40.10;;;;;;5085724;28;20024;-80
2022/07/12 11:08:57;;;;;;;0.00;0.00;;;27.50;40.10;;;;;;5099971;27;20120;-79
2022/07/12 11:11:28;;;;;;;0.00;0.00;;;27.50;38.70;;;;;;5099299;27;20127;-77
2022/07/12 11:13:57;;;;;;;0.00;0.00;;;27.60;38.80;;;;;;5115160;27;20023;-76
2022/07/12 11:16:24;;;;;;;0.10;0.10;;;27.80;38.70;;;;;;5101679;28;20057;-76
2022/07/12 11:18:51;;;;;;;0.00;0.00;;;27.70;38.80;;;;;;5105417;28;20023;-76
2022/07/12 11:21:18;;;;;;;0.10;0.10;;;27.80;39.00;;;;;;5114705;27;20027;-75
2022/07/12 11:23:44;;;;;;;0.00;0.00;;;27.80;38.20;;;;;;5116166;27;20101;-77
2022/07/12 11:26:12;;;;;;;0.00;0.00;;;28.00;37.80;;;;;;5111568;27;20031;-76
2022/07/12 11:28:41;;;;;;;0.22;0.10;;;28.00;38.60;;;;;;5124921;27;20095;-76
2022/07/12 11:31:11;;;;;;;0.00;0.00;;;27.90;37.70;;;;;;5088247;28;20039;-76
2022/07/12 11:33:40;;;;;;;0.20;0.00;;;27.90;37.80;;;;;;5099152;27;20103;-77
2022/07/12 11:36:10;;;;;;;0.75;0.45;;;27.70;37.70;;;;;;5097804;27;20063;-75
2022/07/12 11:38:38;;;;;;;0.00;0.00;;;27.50;37.70;;;;;;5103922;27;20052;-75
2022/07/12 11:41:06;;;;;;;0.00;0.00;;;27.40;37.40;;;;;;5103569;27;20593;-76
2022/07/12 11:43:33;;;;;;;0.00;0.00;;;27.60;37.40;;;;;;5092443;27;20064;-76
2022/07/12 11:46:00;;;;;;;0.00;0.00;;;27.70;37.00;;;;;;5083578;27;20030;-79
2022/07/12 11:48:27;;;;;;;0.03;0.03;;;27.90;36.40;;;;;;5101011;27;20028;-76
2022/07/12 11:50:54;;;;;;;0.43;0.30;;;28.10;36.10;;;;;;5106809;28;20024;-77
2022/07/12 11:53:24;;;;;;;0.22;0.22;;;28.30;36.30;;;;;;5098144;28;20012;-77
2022/07/12 11:55:55;;;;;;;0.20;0.10;;;28.30;35.50;;;;;;5108555;28;20028;-76
2022/07/12 11:58:21;;;;;;;0.00;0.00;;;28.40;36.10;;;;;;5098309;28;20512;-76
2022/07/12 12:00:49;;;;;;;0.00;0.00;;;28.50;35.50;;;;;;5090490;28;20042;-77
2022/07/12 12:03:16;;;;;;;0.00;0.00;;;28.60;35.50;;;;;;5108616;28;20044;-76
2022/07/12 12:05:43;;;;;;;0.57;0.55;;;28.40;35.70;;;;;;5102549;28;20071;-76
2022/07/12 12:08:12;;;;;;;0.20;0.20;;;28.20;36.10;;;;;;5098883;28;20028;-76
2022/07/12 12:10:42;;;;;;;0.00;0.00;;;27.90;36.60;;;;;;5106278;28;20028;-78
2022/07/12 12:13:16;;;;;;;0.10;0.00;;;27.80;36.40;;;;;;5104636;28;20034;-76
2022/07/12 12:15:50;;;;;;;0.00;0.00;;;28.10;35.90;;;;;;5104409;28;20188;-76
2022/07/12 12:18:16;;;;;;;0.80;0.47;;;28.20;36.00;;;;;;5106547;28;20056;-76
2022/07/12 12:20:42;;;;;;;2.50;1.55;;;28.00;37.20;;;;;;5097153;28;20520;-77
2022/07/12 12:23:17;;;;;;;0.40;0.40;;;27.30;42.40;;;;;;5104215;28;20494;-77
2022/07/12 12:25:45;;;;;;;0.45;0.45;;;27.30;43.60;;;;;;5108450;27;20047;-78
2022/07/12 12:28:12;;;;;;;6.40;3.38;;;26.80;45.50;;;;;;5102367;27;20034;-75
2022/07/12 12:30:55;;;;;;;7.85;3.53;;;26.40;48.50;;;;;;5095071;27;20071;-76
2022/07/12 12:33:41;;;;;;;10.13;9.43;;;26.10;49.70;;;;;;5095381;27;20751;-76
2022/07/12 12:36:27;;;;;;;15.02;8.20;;;25.80;51.00;;;;;;5095395;28;20031;-77
2022/07/12 12:38:56;;;;;;;0.10;0.10;;;26.00;51.10;;;;;;5093916;27;20040;-78
2022/07/12 12:41:24;;;;;;;0.40;0.32;;;26.20;50.00;;;;;;5080029;28;20167;-78
2022/07/12 12:44:12;;;;;;;45.10;19.42;;;26.00;50.40;;;;;;5111725;27;20044;-75
2022/07/12 12:47:30;;;;;;;2.92;2.72;;;25.90;51.20;;;;;;5085768;28;20497;-76
2022/07/12 12:49:50;;;;;;;0.77;0.57;;;25.50;52.10;;;;;;5100702;27;21380;-76
2022/07/12 12:52:16;;;;;;;0.30;0.30;;;25.50;52.60;;;;;;5080477;28;20036;-77
2022/07/12 12:54:44;;;;;;;4.57;0.93;;;25.20;53.00;;;;;;5091147;28;20553;-77
2022/07/12 12:57:11;;;;;;;0.00;0.00;;;25.20;52.50;;;;;;5108181;27;20027;-76
2022/07/12 12:59:37;;;;;;;0.00;0.00;;;25.30;51.90;;;;;;5111974;28;20118;-78
2022/07/12 13:02:05;;;;;;;0.28;0.10;;;25.30;51.40;;;;;;5094189;28;20359;-77